Time;durP1;ratioP1;P1;durP2;ratioP2;P2;SDS_P1;SDS_P2;PMS_P1;PMS_P2;Temp;Humidity;BMP_temperature;BMP_pressure;BME280_temperature;BME280_humidity;BME280_pressure;Samples;Min_cycle;Max_cycle;Signal;HPM_P1;HPM_P2
2023/11/23 00:02:24;;;;;;;6.68;3.60;;;4.70;69.60;;;;;;2521200;54;20976;-69
2023/11/23 00:04:51;;;;;;;6.65;3.40;;;4.70;69.60;;;;;;2289835;55;21043;-68
2023/11/23 00:07:18;;;;;;;6.45;3.47;;;4.70;69.60;;;;;;2286362;55;21008;-68
2023/11/23 00:09:44;;;;;;;8.00;4.03;;;4.70;69.50;;;;;;2288215;55;21510;-68
2023/11/23 00:12:10;;;;;;;7.00;3.60;;;4.70;69.50;;;;;;2523092;54;20991;-68
2023/11/23 00:14:37;;;;;;;6.03;3.30;;;4.70;69.50;;;;;;2288797;55;20971;-68
2023/11/23 00:17:03;;;;;;;6.05;3.35;;;4.60;69.50;;;;;;2523199;54;21493;-68
2023/11/23 00:19:29;;;;;;;7.18;3.75;;;4.60;69.50;;;;;;2523142;54;20951;-69
2023/11/23 00:21:56;;;;;;;6.47;3.67;;;4.60;69.50;;;;;;2288647;55;21131;-68
2023/11/23 00:24:23;;;;;;;7.70;3.90;;;4.60;69.60;;;;;;2522876;54;20916;-68
2023/11/23 00:26:53;;;;;;;6.87;3.30;;;4.60;69.60;;;;;;2289673;55;21967;-67
2023/11/23 00:29:21;;;;;;;6.30;3.00;;;4.60;69.60;;;;;;2523582;54;21505;-67
2023/11/23 00:31:47;;;;;;;6.15;3.47;;;4.50;69.40;;;;;;2290166;55;21006;-68
2023/11/23 00:34:13;;;;;;;6.22;3.12;;;4.50;69.30;;;;;;2519868;54;21390;-69
2023/11/23 00:36:43;;;;;;;6.15;3.60;;;4.50;69.20;;;;;;2289138;55;20964;-69
2023/11/23 00:39:09;;;;;;;6.60;3.35;;;4.50;69.30;;;;;;2522276;54;20968;-68
2023/11/23 00:41:38;;;;;;;6.75;3.80;;;4.50;69.50;;;;;;2522826;54;20971;-67
2023/11/23 00:44:05;;;;;;;7.28;3.58;;;4.40;69.40;;;;;;2522600;54;21070;-68
2023/11/23 00:46:35;;;;;;;7.37;4.18;;;4.40;69.40;;;;;;2288743;54;21031;-68
2023/11/23 00:49:04;;;;;;;7.25;3.90;;;4.40;69.40;;;;;;2288804;55;21055;-68
2023/11/23 00:51:32;;;;;;;6.22;3.62;;;4.40;69.50;;;;;;2523470;54;21047;-68
2023/11/23 00:53:58;;;;;;;8.13;3.87;;;4.40;69.60;;;;;;2523217;54;21660;-68
2023/11/23 00:56:26;;;;;;;7.32;4.03;;;4.40;69.70;;;;;;2287733;55;21019;-68
2023/11/23 00:58:52;;;;;;;7.45;3.80;;;4.40;69.80;;;;;;2523332;54;21764;-68
2023/11/23 01:01:18;;;;;;;5.97;3.60;;;4.40;69.80;;;;;;2523013;54;20935;-67
2023/11/23 01:03:44;;;;;;;6.25;3.37;;;4.40;69.80;;;;;;2523134;54;20947;-68
2023/11/23 01:06:11;;;;;;;5.57;2.97;;;4.30;69.70;;;;;;2520673;54;20983;-68
2023/11/23 01:08:38;;;;;;;4.93;2.75;;;4.30;69.60;;;;;;2522804;54;21099;-69
2023/11/23 01:11:06;;;;;;;6.55;3.40;;;4.30;69.50;;;;;;2522079;54;20968;-67
2023/11/23 01:13:32;;;;;;;5.53;3.17;;;4.30;69.50;;;;;;2522736;54;20971;-69
2023/11/23 01:15:59;;;;;;;5.20;2.80;;;4.30;69.40;;;;;;2286702;54;21125;-68
2023/11/23 01:18:25;;;;;;;5.85;3.10;;;4.30;69.50;;;;;;2523294;54;20956;-68
2023/11/23 01:20:52;;;;;;;6.00;3.20;;;4.30;69.50;;;;;;2288990;56;20927;-68
2023/11/23 01:23:18;;;;;;;5.70;3.55;;;4.20;69.50;;;;;;2522221;54;21011;-67
2023/11/23 01:25:45;;;;;;;5.07;2.72;;;4.30;69.60;;;;;;2288489;55;20950;-67
2023/11/23 01:28:12;;;;;;;7.05;3.70;;;4.30;69.70;;;;;;2521310;54;20987;-68
2023/11/23 01:30:39;;;;;;;6.95;3.85;;;4.20;69.70;;;;;;2288735;55;21483;-68
2023/11/23 01:33:05;;;;;;;9.55;4.18;;;4.20;69.70;;;;;;2522850;54;20995;-68
2023/11/23 01:35:32;;;;;;;7.07;3.90;;;4.20;69.80;;;;;;2289685;55;21435;-68
2023/11/23 01:37:59;;;;;;;6.53;3.70;;;4.20;69.80;;;;;;2518336;54;21739;-68
2023/11/23 01:40:26;;;;;;;7.05;3.60;;;4.20;69.90;;;;;;2289443;55;20967;-68
2023/11/23 01:42:53;;;;;;;6.78;3.10;;;4.20;69.90;;;;;;2288905;55;20967;-68
2023/11/23 01:45:22;;;;;;;5.55;2.83;;;4.20;69.80;;;;;;2521732;54;22175;-67
2023/11/23 01:47:50;;;;;;;5.57;3.15;;;4.10;69.60;;;;;;2522659;54;21030;-68
2023/11/23 01:50:16;;;;;;;5.82;3.50;;;4.20;69.70;;;;;;2520188;54;21091;-68
2023/11/23 01:52:43;;;;;;;6.57;3.50;;;4.20;69.70;;;;;;2289415;55;21744;-68
2023/11/23 01:55:09;;;;;;;5.43;3.30;;;4.20;69.70;;;;;;2287428;54;20995;-68
2023/11/23 01:57:38;;;;;;;5.70;3.40;;;4.10;69.60;;;;;;2522533;54;21007;-68
2023/11/23 02:00:05;;;;;;;7.03;3.95;;;4.20;69.80;;;;;;2288859;55;21015;-67
2023/11/23 02:02:31;;;;;;;6.12;3.10;;;4.10;69.70;;;;;;2523466;54;21728;-67
2023/11/23 02:04:58;;;;;;;6.15;3.25;;;4.10;69.70;;;;;;2523176;54;20987;-68
2023/11/23 02:07:25;;;;;;;5.82;3.22;;;4.10;69.70;;;;;;2521563;54;21048;-68
2023/11/23 02:09:51;;;;;;;5.72;3.35;;;4.10;69.70;;;;;;2288909;55;21374;-68
2023/11/23 02:12:18;;;;;;;6.10;3.33;;;4.10;69.70;;;;;;2523038;54;21441;-67
2023/11/23 02:14:44;;;;;;;5.28;3.00;;;4.10;69.70;;;;;;2289139;55;20995;-68
2023/11/23 02:17:17;;;;;;;5.85;2.87;;;4.10;69.70;;;;;;2522835;54;20988;-68
2023/11/23 02:19:47;;;;;;;5.37;3.12;;;4.10;69.70;;;;;;2518501;54;20924;-68
2023/11/23 02:22:13;;;;;;;8.27;3.95;;;4.10;69.70;;;;;;2523221;54;21213;-67
2023/11/23 02:24:41;;;;;;;7.75;3.53;;;4.10;69.80;;;;;;2288259;55;22204;-66
2023/11/23 02:27:07;;;;;;;5.93;3.12;;;4.10;69.90;;;;;;2286299;55;20997;-68
2023/11/23 02:29:34;;;;;;;6.32;3.42;;;4.10;70.00;;;;;;2288866;56;21441;-67
2023/11/23 02:32:07;;;;;;;6.20;3.72;;;4.10;69.90;;;;;;2523535;54;20968;-68
2023/11/23 02:34:34;;;;;;;5.37;3.03;;;4.10;69.90;;;;;;2523597;54;21022;-67
2023/11/23 02:37:00;;;;;;;6.12;3.40;;;4.10;69.90;;;;;;2518990;54;20994;-67
2023/11/23 02:39:27;;;;;;;6.55;3.00;;;4.10;70.00;;;;;;2287196;55;20959;-67
2023/11/23 02:41:56;;;;;;;6.80;3.80;;;4.10;69.90;;;;;;2520814;54;21081;-68
2023/11/23 02:44:23;;;;;;;7.25;3.78;;;4.10;69.90;;;;;;2286100;55;21039;-68
2023/11/23 02:46:49;;;;;;;6.53;3.83;;;4.10;70.00;;;;;;2522094;54;20952;-68
2023/11/23 02:49:16;;;;;;;6.07;3.65;;;4.10;70.10;;;;;;2522242;54;21057;-67
2023/11/23 02:51:42;;;;;;;6.20;3.33;;;4.20;70.30;;;;;;2522325;54;21019;-68
2023/11/23 02:54:09;;;;;;;7.72;3.90;;;4.10;70.20;;;;;;2289889;55;20967;-67
2023/11/23 02:56:36;;;;;;;5.07;3.12;;;4.10;70.20;;;;;;2522532;54;21026;-67
2023/11/23 02:59:05;;;;;;;6.25;3.50;;;4.10;70.20;;;;;;2289149;55;21640;-67
2023/11/23 03:01:34;;;;;;;6.72;3.62;;;4.10;70.10;;;;;;2288927;55;21030;-67
2023/11/23 03:04:00;;;;;;;7.03;3.83;;;4.10;70.00;;;;;;2288253;55;20975;-67
2023/11/23 03:06:27;;;;;;;7.37;3.65;;;4.10;70.00;;;;;;2287305;55;21054;-68
2023/11/23 03:08:56;;;;;;;6.43;3.80;;;4.10;70.10;;;;;;2523369;54;20998;-68
2023/11/23 03:11:24;;;;;;;6.87;3.65;;;4.10;70.10;;;;;;2522180;54;20999;-68
2023/11/23 03:13:51;;;;;;;7.22;3.90;;;4.10;70.10;;;;;;2521863;54;21022;-68
2023/11/23 03:16:18;;;;;;;6.90;3.62;;;4.10;70.10;;;;;;2284367;55;21760;-67
2023/11/23 03:18:44;;;;;;;5.93;3.50;;;4.10;70.10;;;;;;2288669;55;20963;-67
2023/11/23 03:21:11;;;;;;;5.57;3.15;;;4.10;70.10;;;;;;2288791;55;20963;-66
2023/11/23 03:23:38;;;;;;;7.12;3.87;;;4.10;70.10;;;;;;2523376;54;20951;-67
2023/11/23 03:26:04;;;;;;;6.57;3.12;;;4.10;70.10;;;;;;2523648;54;20955;-67
2023/11/23 03:28:31;;;;;;;6.55;3.40;;;4.10;70.20;;;;;;2522741;54;21484;-67
2023/11/23 03:30:59;;;;;;;5.82;3.22;;;4.10;70.20;;;;;;2523344;54;20991;-67
2023/11/23 03:33:25;;;;;;;6.40;3.90;;;4.10;70.20;;;;;;2522701;54;20975;-66
2023/11/23 03:35:58;;;;;;;6.70;3.37;;;4.10;70.10;;;;;;2288289;55;20943;-67
2023/11/23 03:38:25;;;;;;;6.28;3.58;;;4.10;70.10;;;;;;2288833;55;20975;-67
2023/11/23 03:40:52;;;;;;;6.90;3.40;;;4.10;70.10;;;;;;2523718;54;21837;-68
2023/11/23 03:43:18;;;;;;;6.18;3.37;;;4.10;70.00;;;;;;2523723;54;21043;-67
2023/11/23 03:45:44;;;;;;;5.90;3.22;;;4.10;70.00;;;;;;2522938;54;21039;-66
2023/11/23 03:48:13;;;;;;;6.15;3.35;;;4.10;70.00;;;;;;2288772;55;20951;-67
2023/11/23 03:50:39;;;;;;;6.65;3.42;;;4.00;69.90;;;;;;2523067;54;21007;-67
2023/11/23 03:53:06;;;;;;;6.62;3.30;;;4.10;70.00;;;;;;2290115;55;21026;-67
2023/11/23 03:55:35;;;;;;;5.30;3.00;;;4.10;70.00;;;;;;2285302;55;21111;-66
2023/11/23 03:58:02;;;;;;;7.45;3.75;;;4.00;70.00;;;;;;2288891;55;21837;-66
2023/11/23 04:00:29;;;;;;;5.82;2.95;;;4.00;70.00;;;;;;2522329;54;20976;-68
2023/11/23 04:03:01;;;;;;;9.70;3.30;;;4.00;70.10;;;;;;2288633;55;21031;-67
2023/11/23 04:05:28;;;;;;;7.00;3.45;;;4.00;70.10;;;;;;2521849;54;21348;-67
2023/11/23 04:07:55;;;;;;;7.20;3.65;;;4.00;70.20;;;;;;2290329;55;20991;-67
2023/11/23 04:10:42;;;;;;;6.47;3.60;;;4.00;70.20;;;;;;2285668;55;21420;-67
2023/11/23 04:13:09;;;;;;;6.75;4.05;;;4.00;70.00;;;;;;2523151;54;21263;-67
2023/11/23 04:15:36;;;;;;;6.78;3.85;;;4.00;70.10;;;;;;2289778;55;20991;-68
2023/11/23 04:18:03;;;;;;;6.10;3.50;;;4.00;70.10;;;;;;2523256;54;21614;-67
2023/11/23 04:20:29;;;;;;;6.15;3.22;;;4.00;70.10;;;;;;2288372;55;21085;-68
2023/11/23 04:22:57;;;;;;;5.78;3.08;;;4.00;70.00;;;;;;2522602;54;21003;-67
2023/11/23 04:25:23;;;;;;;6.12;3.10;;;4.00;70.00;;;;;;2522688;54;21484;-67
2023/11/23 04:27:50;;;;;;;4.57;2.70;;;4.00;69.90;;;;;;2288188;55;21003;-67
2023/11/23 04:30:16;;;;;;;8.30;3.80;;;4.00;69.80;;;;;;2288523;55;21035;-67
2023/11/23 04:32:43;;;;;;;7.25;3.92;;;3.90;69.70;;;;;;2523584;54;21047;-67
2023/11/23 04:35:12;;;;;;;7.05;3.85;;;3.90;69.70;;;;;;2523488;54;21534;-66
2023/11/23 04:37:39;;;;;;;6.90;3.72;;;3.90;69.80;;;;;;2522918;54;20928;-67
2023/11/23 04:40:06;;;;;;;7.75;4.10;;;3.90;70.00;;;;;;2523189;54;21006;-66
2023/11/23 04:42:34;;;;;;;4.90;2.97;;;3.90;70.00;;;;;;2288358;55;21769;-67
2023/11/23 04:45:00;;;;;;;6.80;3.50;;;3.90;70.00;;;;;;2288794;55;21139;-68
2023/11/23 04:47:29;;;;;;;6.57;3.60;;;3.90;70.00;;;;;;2288256;55;20987;-67
2023/11/23 04:49:55;;;;;;;6.93;3.47;;;3.90;69.90;;;;;;2522613;54;21932;-66
2023/11/23 04:52:22;;;;;;;5.93;3.37;;;3.80;69.70;;;;;;2521989;54;21051;-66
2023/11/23 04:54:49;;;;;;;5.93;3.35;;;3.80;69.80;;;;;;2288792;55;21108;-67
2023/11/23 04:57:17;;;;;;;7.05;3.70;;;3.80;69.80;;;;;;2523128;54;20995;-67
2023/11/23 04:59:43;;;;;;;6.65;3.70;;;3.80;69.90;;;;;;2521254;54;20992;-67
2023/11/23 05:02:10;;;;;;;5.85;3.47;;;3.80;69.90;;;;;;2285204;55;20951;-66
2023/11/23 05:04:37;;;;;;;7.62;3.60;;;3.80;69.90;;;;;;2519100;54;21306;-67
2023/11/23 05:07:05;;;;;;;7.53;3.65;;;3.80;70.00;;;;;;2521202;54;21014;-67
2023/11/23 05:09:32;;;;;;;6.37;3.33;;;3.80;70.10;;;;;;2286545;54;20959;-67
2023/11/23 05:11:58;;;;;;;7.32;3.80;;;3.80;69.90;;;;;;2286893;55;21002;-66
2023/11/23 05:14:25;;;;;;;7.05;3.53;;;3.80;69.80;;;;;;2287308;55;21391;-67
2023/11/23 05:16:51;;;;;;;6.45;3.70;;;3.80;69.90;;;;;;2287665;55;21853;-67
2023/11/23 05:19:20;;;;;;;7.05;3.65;;;3.80;69.90;;;;;;2519741;54;21410;-67
2023/11/23 05:21:51;;;;;;;6.75;4.03;;;3.80;69.90;;;;;;2286365;55;20998;-66
2023/11/23 05:24:17;;;;;;;9.13;4.70;;;3.80;69.90;;;;;;2288914;55;20963;-67
2023/11/23 05:26:44;;;;;;;8.10;5.62;;;3.80;70.00;;;;;;2288704;55;21014;-66
2023/11/23 05:29:12;;;;;;;7.22;4.60;;;3.80;70.80;;;;;;2523724;54;20971;-67
2023/11/23 05:31:38;;;;;;;7.30;4.40;;;3.80;70.10;;;;;;2287375;55;21768;-67
2023/11/23 05:34:05;;;;;;;8.55;4.70;;;3.80;70.00;;;;;;2287332;55;21401;-67
2023/11/23 05:36:32;;;;;;;6.53;3.78;;;3.80;69.90;;;;;;2288392;55;20991;-67
2023/11/23 05:38:59;;;;;;;8.88;5.12;;;3.80;69.90;;;;;;2523682;54;21336;-67
2023/11/23 05:41:25;;;;;;;9.02;4.60;;;3.70;69.80;;;;;;2522767;54;20996;-67
2023/11/23 05:43:53;;;;;;;8.02;4.75;;;3.70;69.80;;;;;;2287955;55;21007;-67
2023/11/23 05:46:20;;;;;;;9.50;5.03;;;3.70;69.90;;;;;;2290182;55;21062;-67
2023/11/23 05:48:47;;;;;;;9.82;5.47;;;3.70;69.80;;;;;;2287580;55;21038;-67
2023/11/23 05:51:16;;;;;;;8.32;4.53;;;3.70;69.90;;;;;;2288883;55;21055;-66
2023/11/23 05:53:46;;;;;;;8.75;5.00;;;3.70;69.90;;;;;;2522436;54;20956;-67
2023/11/23 05:56:12;;;;;;;7.40;4.50;;;3.70;69.90;;;;;;2288560;55;21032;-67
2023/11/23 05:58:41;;;;;;;7.90;4.70;;;3.70;70.00;;;;;;2288225;55;21315;-66
2023/11/23 06:01:07;;;;;;;9.90;5.28;;;3.70;69.90;;;;;;2288752;55;21024;-67
2023/11/23 06:03:37;;;;;;;7.05;4.65;;;3.70;69.90;;;;;;2522208;54;21023;-67
2023/11/23 06:06:04;;;;;;;7.40;4.40;;;3.70;69.90;;;;;;2523164;54;21004;-66
2023/11/23 06:08:30;;;;;;;8.40;5.00;;;3.70;69.90;;;;;;2288335;55;21014;-67
2023/11/23 06:10:57;;;;;;;8.73;4.00;;;3.70;69.90;;;;;;2523027;54;20936;-66
2023/11/23 06:13:24;;;;;;;5.82;3.70;;;3.70;69.90;;;;;;2522889;54;21338;-67
2023/11/23 06:15:50;;;;;;;7.53;4.47;;;3.70;69.80;;;;;;2288639;55;20947;-66
2023/11/23 06:18:21;;;;;;;8.98;4.97;;;3.70;69.80;;;;;;2288274;55;21003;-67
2023/11/23 06:20:47;;;;;;;7.60;4.07;;;3.70;69.90;;;;;;2287988;55;21030;-67
2023/11/23 06:23:14;;;;;;;7.30;4.18;;;3.70;70.10;;;;;;2289979;55;21086;-67
2023/11/23 06:25:40;;;;;;;5.95;3.58;;;3.70;70.00;;;;;;2285350;55;21896;-66
2023/11/23 06:28:06;;;;;;;7.60;4.07;;;3.70;69.90;;;;;;2523240;54;21109;-67
2023/11/23 06:30:35;;;;;;;8.68;3.60;;;3.70;69.80;;;;;;2288399;55;21907;-66
2023/11/23 06:33:01;;;;;;;5.60;3.35;;;3.70;69.80;;;;;;2292085;55;20979;-66
2023/11/23 06:35:28;;;;;;;6.50;3.72;;;3.60;69.60;;;;;;2517868;54;21476;-67
2023/11/23 06:37:55;;;;;;;5.97;3.75;;;3.60;69.70;;;;;;2524107;54;21007;-67
2023/11/23 06:40:22;;;;;;;7.87;4.37;;;3.60;69.80;;;;;;2522870;54;20950;-67
2023/11/23 06:42:51;;;;;;;8.40;4.37;;;3.60;69.80;;;;;;2523022;54;21585;-66
2023/11/23 06:45:19;;;;;;;10.05;5.93;;;3.60;69.90;;;;;;2523823;54;21044;-66
2023/11/23 06:47:45;;;;;;;11.50;5.60;;;3.60;69.90;;;;;;2287289;55;21070;-67
2023/11/23 06:50:12;;;;;;;9.52;5.03;;;3.60;69.90;;;;;;2522369;54;20990;-67
2023/11/23 06:52:38;;;;;;;10.45;5.70;;;3.60;69.90;;;;;;2288338;55;21089;-67
2023/11/23 06:55:09;;;;;;;12.00;6.12;;;3.60;69.90;;;;;;2519955;54;21493;-67
2023/11/23 06:57:46;;;;;;;11.73;6.12;;;3.60;70.00;;;;;;2520644;54;20951;-66
2023/11/23 07:00:22;;;;;;;10.25;6.05;;;3.60;70.00;;;;;;2290638;55;20953;-67
2023/11/23 07:02:52;;;;;;;8.13;4.82;;;3.60;70.00;;;;;;2285629;55;21027;-67
2023/11/23 07:05:19;;;;;;;8.38;4.35;;;3.60;69.80;;;;;;2287827;55;21057;-67
2023/11/23 07:07:47;;;;;;;7.72;3.83;;;3.60;69.80;;;;;;2521664;54;21031;-67
2023/11/23 07:10:15;;;;;;;7.50;4.22;;;3.60;69.80;;;;;;2516828;54;21018;-67
2023/11/23 07:12:44;;;;;;;6.93;3.70;;;3.60;69.80;;;;;;2522529;54;20960;-67
2023/11/23 07:15:14;;;;;;;7.45;3.75;;;3.60;69.80;;;;;;2523539;54;20943;-66
2023/11/23 07:17:41;;;;;;;6.82;3.70;;;3.60;69.90;;;;;;2291930;55;20979;-66
2023/11/23 07:20:11;;;;;;;8.05;4.15;;;3.50;69.70;;;;;;2518411;54;20943;-67
2023/11/23 07:22:40;;;;;;;8.82;4.40;;;3.50;69.80;;;;;;2521927;54;20991;-67
2023/11/23 07:25:10;;;;;;;7.37;4.53;;;3.50;69.90;;;;;;2290879;54;20979;-67
2023/11/23 07:27:37;;;;;;;9.38;4.72;;;3.60;70.20;;;;;;2518591;54;21067;-67
2023/11/23 07:30:06;;;;;;;8.73;5.43;;;3.50;70.20;;;;;;2523694;54;21022;-67
2023/11/23 07:32:35;;;;;;;10.15;5.65;;;3.60;70.50;;;;;;2523187;54;21003;-67
2023/11/23 07:35:04;;;;;;;8.63;5.65;;;3.60;70.60;;;;;;2289788;55;20975;-67
2023/11/23 07:37:33;;;;;;;7.97;4.72;;;3.60;70.80;;;;;;2523170;54;21785;-67
2023/11/23 07:40:03;;;;;;;8.50;4.82;;;3.60;71.00;;;;;;2522733;54;21499;-67
2023/11/23 07:42:32;;;;;;;10.20;5.20;;;3.70;71.30;;;;;;2523525;54;20960;-67
2023/11/23 07:44:59;;;;;;;8.75;5.15;;;3.70;71.40;;;;;;2523362;54;21019;-67
2023/11/23 07:47:25;;;;;;;8.50;4.82;;;3.70;71.60;;;;;;2518891;54;21516;-68
2023/11/23 07:49:52;;;;;;;9.88;5.65;;;3.80;71.90;;;;;;2286877;55;20963;-67
2023/11/23 07:52:21;;;;;;;8.98;5.68;;;3.80;72.00;;;;;;2522024;54;21876;-67
2023/11/23 07:54:47;;;;;;;10.07;5.53;;;3.90;72.20;;;;;;2523435;54;20995;-67
2023/11/23 07:57:19;;;;;;;8.45;5.03;;;4.00;72.40;;;;;;2287742;55;20944;-67
2023/11/23 07:59:45;;;;;;;8.70;5.45;;;4.00;72.40;;;;;;2521434;54;20979;-68
2023/11/23 08:02:13;;;;;;;12.07;6.97;;;4.10;72.50;;;;;;2522361;54;20947;-67
2023/11/23 08:04:40;;;;;;;13.00;6.45;;;4.10;72.50;;;;;;2288601;55;21039;-68
2023/11/23 08:07:06;;;;;;;8.82;5.43;;;4.20;72.60;;;;;;2288465;55;21034;-69
2023/11/23 08:09:32;;;;;;;7.97;4.78;;;4.30;72.80;;;;;;2522657;54;21024;-69
2023/11/23 08:11:59;;;;;;;7.03;4.25;;;4.30;72.90;;;;;;2288370;54;21046;-68
2023/11/23 08:14:25;;;;;;;7.40;4.20;;;4.40;73.10;;;;;;2289043;55;21774;-68
2023/11/23 08:16:51;;;;;;;7.07;4.22;;;4.50;73.30;;;;;;2287808;55;20975;-68
2023/11/23 08:19:18;;;;;;;6.20;3.85;;;4.50;73.40;;;;;;2288921;55;20975;-67
2023/11/23 08:21:45;;;;;;;7.12;3.67;;;4.60;73.50;;;;;;2287813;55;21020;-67
2023/11/23 08:24:12;;;;;;;7.25;4.03;;;4.60;73.50;;;;;;2523608;54;21014;-69
2023/11/23 08:26:40;;;;;;;6.57;3.85;;;4.80;73.70;;;;;;2522913;54;20955;-67
2023/11/23 08:29:09;;;;;;;5.43;3.15;;;4.80;73.70;;;;;;2288783;55;20936;-68
2023/11/23 08:31:36;;;;;;;4.90;3.05;;;4.90;73.80;;;;;;2265800;56;21492;-68
2023/11/23 08:34:03;;;;;;;4.80;2.90;;;5.00;73.80;;;;;;2522690;54;20971;-69
2023/11/23 08:36:30;;;;;;;5.15;3.00;;;5.00;73.80;;;;;;2288475;54;21055;-69
2023/11/23 08:38:57;;;;;;;4.18;2.53;;;5.10;73.80;;;;;;2290520;55;21004;-67
2023/11/23 08:41:25;;;;;;;5.78;2.78;;;5.20;73.80;;;;;;2284954;55;21086;-70
2023/11/23 08:43:51;;;;;;;4.60;2.40;;;5.30;73.80;;;;;;2288509;55;21002;-69
2023/11/23 08:46:18;;;;;;;4.05;2.10;;;5.30;73.60;;;;;;2523669;54;21556;-70
2023/11/23 08:48:44;;;;;;;4.60;2.37;;;5.40;73.60;;;;;;2523196;54;20955;-68
2023/11/23 08:51:11;;;;;;;4.03;1.87;;;5.50;73.50;;;;;;2523651;54;21036;-69
2023/11/23 08:53:38;;;;;;;5.70;3.22;;;5.50;73.40;;;;;;2491526;54;20982;-70
2023/11/23 08:56:05;;;;;;;6.43;3.87;;;5.60;73.40;;;;;;2288410;55;20951;-69
2023/11/23 08:58:31;;;;;;;5.55;3.30;;;5.60;73.30;;;;;;2518183;54;21007;-70
2023/11/23 09:00:58;;;;;;;4.70;2.67;;;5.80;73.40;;;;;;2285957;54;20951;-68
2023/11/23 09:03:24;;;;;;;6.47;3.00;;;5.70;73.20;;;;;;2522986;54;21062;-69
2023/11/23 09:05:50;;;;;;;7.00;3.47;;;5.80;73.20;;;;;;2517459;54;20970;-68
2023/11/23 09:08:17;;;;;;;8.23;3.78;;;5.80;73.20;;;;;;2285689;55;20964;-68
2023/11/23 09:10:45;;;;;;;8.20;3.78;;;5.90;73.20;;;;;;2287178;55;21437;-70
2023/11/23 09:13:19;;;;;;;6.97;3.70;;;6.00;73.20;;;;;;2516429;54;21014;-69
2023/11/23 09:15:45;;;;;;;6.35;2.92;;;6.00;73.10;;;;;;2522960;54;21386;-69
2023/11/23 09:18:14;;;;;;;5.20;2.92;;;6.10;73.10;;;;;;2523575;54;20953;-69
2023/11/23 09:20:41;;;;;;;6.20;2.67;;;6.10;73.10;;;;;;2523306;54;20984;-70
2023/11/23 09:23:08;;;;;;;5.03;2.70;;;6.20;73.10;;;;;;2291278;55;21134;-68
2023/11/23 09:25:34;;;;;;;4.35;2.40;;;6.20;73.10;;;;;;2519090;54;20971;-70
2023/11/23 09:28:01;;;;;;;5.45;2.92;;;6.30;73.20;;;;;;2522786;54;21038;-70
2023/11/23 09:30:27;;;;;;;4.57;2.67;;;6.40;73.20;;;;;;2287796;55;20983;-70
2023/11/23 09:32:53;;;;;;;4.97;2.80;;;6.40;73.20;;;;;;2522387;54;20968;-69
2023/11/23 09:35:20;;;;;;;4.20;2.40;;;6.50;73.30;;;;;;2288339;55;20971;-70
2023/11/23 09:37:47;;;;;;;4.55;2.53;;;6.50;73.20;;;;;;2522876;54;21433;-69
2023/11/23 09:40:17;;;;;;;4.93;2.90;;;6.60;73.30;;;;;;2288491;55;21761;-70
2023/11/23 09:42:43;;;;;;;4.35;2.05;;;6.60;73.20;;;;;;2523649;54;21024;-69
2023/11/23 09:45:14;;;;;;;3.05;1.55;;;6.70;73.40;;;;;;2523093;54;20979;-69
2023/11/23 09:47:41;;;;;;;4.03;2.10;;;6.70;73.40;;;;;;2523472;54;21055;-69
2023/11/23 09:50:09;;;;;;;3.15;1.80;;;6.80;73.50;;;;;;2522943;54;20959;-68
2023/11/23 09:52:36;;;;;;;3.42;1.70;;;6.80;73.40;;;;;;2523086;54;21413;-69
2023/11/23 09:55:04;;;;;;;3.53;2.00;;;6.90;73.50;;;;;;2523336;54;20979;-70
2023/11/23 09:57:30;;;;;;;3.87;2.03;;;7.00;73.60;;;;;;2517201;54;21797;-71
2023/11/23 09:59:56;;;;;;;3.62;2.10;;;7.00;73.50;;;;;;2520794;54;21051;-68
2023/11/23 10:02:30;;;;;;;4.20;2.30;;;7.10;73.50;;;;;;2523310;54;20960;-69
2023/11/23 10:04:58;;;;;;;3.95;2.20;;;7.10;73.50;;;;;;2288494;55;21038;-68
2023/11/23 10:07:26;;;;;;;4.20;2.17;;;7.20;73.50;;;;;;2523424;54;21073;-70
2023/11/23 10:09:53;;;;;;;4.22;2.50;;;7.20;73.60;;;;;;2521261;54;21006;-70
2023/11/23 10:12:21;;;;;;;3.55;1.90;;;7.30;73.60;;;;;;2518606;54;21367;-69
2023/11/23 10:14:48;;;;;;;3.95;1.90;;;7.40;73.70;;;;;;2522862;54;20967;-68
2023/11/23 10:17:14;;;;;;;3.58;2.08;;;7.40;73.70;;;;;;2522577;54;21650;-69
2023/11/23 10:19:40;;;;;;;3.33;1.80;;;7.50;73.80;;;;;;2522808;54;20991;-68
2023/11/23 10:22:07;;;;;;;3.47;1.70;;;7.60;73.90;;;;;;2522566;54;21095;-69
2023/11/23 10:24:34;;;;;;;4.00;2.17;;;7.60;73.90;;;;;;2288424;55;21023;-68
2023/11/23 10:27:02;;;;;;;10.10;5.80;;;7.70;74.00;;;;;;2522591;54;21264;-70
2023/11/23 10:29:32;;;;;;;7.68;4.62;;;7.80;74.10;;;;;;2291093;55;21047;-71
2023/11/23 10:32:01;;;;;;;6.65;3.85;;;7.80;74.00;;;;;;2517263;54;21003;-69
2023/11/23 10:34:29;;;;;;;5.37;2.85;;;7.90;74.00;;;;;;2288823;55;20980;-69
2023/11/23 10:36:56;;;;;;;4.97;3.15;;;8.00;74.10;;;;;;2523042;54;21683;-70
2023/11/23 10:39:23;;;;;;;4.47;2.55;;;8.10;74.20;;;;;;2523142;54;21043;-69
2023/11/23 10:41:49;;;;;;;4.93;2.62;;;8.10;74.10;;;;;;2288962;55;20963;-69
2023/11/23 10:44:16;;;;;;;4.53;2.60;;;8.10;74.00;;;;;;2521432;54;21301;-68
2023/11/23 10:46:42;;;;;;;4.43;2.70;;;8.20;73.80;;;;;;2519198;54;22100;-71
2023/11/23 10:49:09;;;;;;;4.03;2.28;;;8.30;73.90;;;;;;2288595;55;20944;-69
2023/11/23 10:51:38;;;;;;;3.62;2.12;;;8.30;73.80;;;;;;2518015;54;21065;-68
2023/11/23 10:54:05;;;;;;;4.15;2.33;;;8.40;73.80;;;;;;2521842;54;20967;-69
2023/11/23 10:56:32;;;;;;;4.37;2.42;;;8.50;73.90;;;;;;2523117;54;21264;-68
2023/11/23 10:59:05;;;;;;;4.18;2.28;;;8.50;73.80;;;;;;2288194;55;21007;-69
2023/11/23 11:01:31;;;;;;;6.12;2.87;;;8.60;73.80;;;;;;2522668;54;20980;-71
2023/11/23 11:04:08;;;;;;;5.55;2.62;;;8.60;73.80;;;;;;2518018;54;21038;-69
2023/11/23 11:13:26;;;;;;;4.45;2.83;;;8.70;73.80;;;;;;2290749;55;21555;-70
2023/11/23 11:16:15;;;;;;;4.35;1.77;;;8.90;72.90;;;;;;2263121;55;20939;-69
2023/11/23 11:18:51;;;;;;;4.90;2.33;;;8.90;73.40;;;;;;2517492;55;20977;-69
2023/11/23 11:22:28;;;;;;;3.78;2.33;;;9.00;73.70;;;;;;2500585;54;21004;-69
2023/11/23 11:38:00;;;;;;;5.03;2.78;;;9.00;73.70;;;;;;2517022;54;20958;-69
2023/11/23 11:43:05;;;;;;;3.15;1.67;;;9.10;73.80;;;;;;2514831;54;21058;-69
2023/11/23 11:48:51;;;;;;;4.20;2.00;;;9.30;72.80;;;;;;2519555;54;21040;-70
2023/11/23 11:51:53;;;;;;;3.33;1.70;;;9.40;73.60;;;;;;2508751;54;20987;-70
2023/11/23 11:54:21;;;;;;;5.07;2.12;;;9.40;73.60;;;;;;2523088;54;21008;-70
2023/11/23 12:16:23;;;;;;;3.80;2.05;;;9.50;73.80;;;;;;2519763;54;21035;-69
2023/11/23 12:19:27;;;;;;;2.60;1.12;;;9.80;73.00;;;;;;2483620;54;20979;-70
2023/11/23 12:21:55;;;;;;;2.47;1.08;;;9.90;74.10;;;;;;2507375;54;20999;-69
2023/11/23 12:24:30;;;;;;;2.95;1.55;;;9.90;74.20;;;;;;2517474;54;21093;-69
2023/11/23 12:26:57;;;;;;;2.85;1.17;;;9.90;74.30;;;;;;2518436;54;21011;-71
2023/11/23 12:29:25;;;;;;;3.87;1.60;;;9.90;74.40;;;;;;2516899;54;20995;-68
2023/11/23 12:31:54;;;;;;;3.55;1.70;;;10.00;73.40;;;;;;2279899;55;21094;-68
2023/11/23 12:34:20;;;;;;;3.20;1.50;;;10.10;73.60;;;;;;2288446;55;21720;-69
2023/11/23 12:36:47;;;;;;;2.78;1.30;;;10.10;73.60;;;;;;2286206;54;21003;-70
2023/11/23 12:39:15;;;;;;;3.67;1.58;;;10.20;73.70;;;;;;2523253;54;20955;-70
2023/11/23 12:41:42;;;;;;;2.45;1.23;;;10.30;73.70;;;;;;2523354;54;21044;-69
2023/11/23 12:44:09;;;;;;;2.58;1.05;;;10.30;73.60;;;;;;2288514;55;20975;-70
2023/11/23 12:46:35;;;;;;;2.42;1.12;;;10.30;73.50;;;;;;2520278;54;21051;-69
2023/11/23 12:49:03;;;;;;;2.87;1.27;;;10.40;74.30;;;;;;2294591;54;20976;-70
2023/11/23 12:51:30;;;;;;;2.08;1.02;;;10.50;73.60;;;;;;2286551;55;20972;-70
2023/11/23 12:53:56;;;;;;;3.05;1.58;;;10.50;73.50;;;;;;2518877;54;20967;-70
2023/11/23 12:56:23;;;;;;;9.90;4.03;;;10.50;73.40;;;;;;2291062;56;21475;-70
2023/11/23 12:58:51;;;;;;;9.90;4.20;;;10.60;73.40;;;;;;2518012;54;20947;-69
2023/11/23 13:01:18;;;;;;;8.52;3.70;;;10.70;73.50;;;;;;2522771;54;21594;-70
2023/11/23 13:03:44;;;;;;;6.30;3.25;;;10.70;73.40;;;;;;2522015;54;21015;-70
2023/11/23 13:06:15;;;;;;;5.30;2.30;;;10.70;73.50;;;;;;2520986;54;20986;-71
2023/11/23 13:08:42;;;;;;;4.12;1.80;;;10.80;73.50;;;;;;2519689;54;20975;-68
2023/11/23 13:11:08;;;;;;;3.40;1.50;;;10.80;73.50;;;;;;2520153;54;21022;-70
2023/11/23 13:13:38;;;;;;;3.40;1.45;;;10.80;73.40;;;;;;2285925;55;21911;-71
2023/11/23 13:16:05;;;;;;;2.75;1.20;;;10.90;73.50;;;;;;2521668;54;20976;-71
2023/11/23 13:18:34;;;;;;;5.20;1.55;;;11.00;73.50;;;;;;2522737;54;20999;-71
2023/11/23 13:21:05;;;;;;;2.42;1.30;;;11.00;73.50;;;;;;2349368;54;2341682;-71
2023/11/23 13:23:33;;;;;;;2.67;1.15;;;11.10;73.70;;;;;;2523216;54;21002;-71
2023/11/23 13:26:01;;;;;;;3.00;1.20;;;11.10;73.60;;;;;;2522961;54;21027;-69
2023/11/23 13:28:31;;;;;;;3.58;1.10;;;11.10;73.60;;;;;;2287128;55;21019;-71
2023/11/23 13:30:57;;;;;;;2.37;1.17;;;11.20;73.60;;;;;;2520565;54;21500;-70
2023/11/23 13:33:24;;;;;;;2.70;0.80;;;11.20;73.50;;;;;;2285436;54;20948;-70
2023/11/23 13:35:51;;;;;;;2.42;1.15;;;11.20;73.40;;;;;;2290011;55;21023;-69
2023/11/23 13:38:19;;;;;;;2.85;1.00;;;11.30;73.50;;;;;;2520819;54;20966;-69
2023/11/23 13:40:48;;;;;;;4.55;1.87;;;11.30;73.50;;;;;;2522857;54;20979;-71
2023/11/23 13:43:16;;;;;;;4.15;1.73;;;11.30;73.40;;;;;;2523070;54;20982;-69
2023/11/23 13:45:44;;;;;;;2.67;1.30;;;11.40;73.30;;;;;;2523374;54;21523;-70